sensor_id;sensor_type;location;lat;lon;timestamp;temperature;humidity
69208;SHT31;70114;47.690;8.898;2023-07-16T00:02:24;21.77;79.59
69208;SHT31;70114;47.690;8.898;2023-07-16T00:04:49;21.70;79.40
69208;SHT31;70114;47.690;8.898;2023-07-16T00:07:14;21.73;79.59
69208;SHT31;70114;47.690;8.898;2023-07-16T00:09:40;21.36;79.66
69208;SHT31;70114;47.690;8.898;2023-07-16T00:12:06;21.37;79.44
69208;SHT31;70114;47.690;8.898;2023-07-16T00:14:31;21.20;79.41
69208;SHT31;70114;47.690;8.898;2023-07-16T00:16:57;21.23;79.53
69208;SHT31;70114;47.690;8.898;2023-07-16T00:19:23;21.14;79.29
69208;SHT31;70114;47.690;8.898;2023-07-16T00:21:48;21.26;79.30
69208;SHT31;70114;47.690;8.898;2023-07-16T00:24:14;21.13;79.31
69208;SHT31;70114;47.690;8.898;2023-07-16T00:26:39;21.00;79.21
69208;SHT31;70114;47.690;8.898;2023-07-16T00:29:04;20.91;79.74
69208;SHT31;70114;47.690;8.898;2023-07-16T00:31:30;21.03;79.01
69208;SHT31;70114;47.690;8.898;2023-07-16T00:33:55;20.88;79.12
69208;SHT31;70114;47.690;8.898;2023-07-16T00:36:21;20.89;79.10
69208;SHT31;70114;47.690;8.898;2023-07-16T00:38:46;20.76;79.70
69208;SHT31;70114;47.690;8.898;2023-07-16T00:41:15;20.68;78.43
69208;SHT31;70114;47.690;8.898;2023-07-16T00:43:41;20.72;78.76
69208;SHT31;70114;47.690;8.898;2023-07-16T00:46:07;20.64;77.81
69208;SHT31;70114;47.690;8.898;2023-07-16T00:48:33;20.63;76.73
69208;SHT31;70114;47.690;8.898;2023-07-16T00:51:00;20.61;75.60
69208;SHT31;70114;47.690;8.898;2023-07-16T00:53:25;20.67;75.79
69208;SHT31;70114;47.690;8.898;2023-07-16T00:55:51;20.44;75.85
69208;SHT31;70114;47.690;8.898;2023-07-16T00:58:17;20.64;75.96
69208;SHT31;70114;47.690;8.898;2023-07-16T01:00:42;20.65;75.35
69208;SHT31;70114;47.690;8.898;2023-07-16T01:03:10;20.65;75.00
69208;SHT31;70114;47.690;8.898;2023-07-16T01:08:10;20.58;76.16
69208;SHT31;70114;47.690;8.898;2023-07-16T01:10:39;20.48;75.34
69208;SHT31;70114;47.690;8.898;2023-07-16T01:13:05;20.43;74.64
69208;SHT31;70114;47.690;8.898;2023-07-16T01:15:31;20.48;75.00
69208;SHT31;70114;47.690;8.898;2023-07-16T01:17:56;20.37;75.75
69208;SHT31;70114;47.690;8.898;2023-07-16T01:20:22;20.26;76.23
69208;SHT31;70114;47.690;8.898;2023-07-16T01:22:54;20.20;76.43
69208;SHT31;70114;47.690;8.898;2023-07-16T01:25:41;20.21;76.77
69208;SHT31;70114;47.690;8.898;2023-07-16T01:31:16;19.96;76.72
69208;SHT31;70114;47.690;8.898;2023-07-16T01:33:42;19.80;76.27
69208;SHT31;70114;47.690;8.898;2023-07-16T01:36:08;19.66;76.80
69208;SHT31;70114;47.690;8.898;2023-07-16T01:38:34;19.69;75.62
69208;SHT31;70114;47.690;8.898;2023-07-16T01:41:00;19.65;75.95
69208;SHT31;70114;47.690;8.898;2023-07-16T01:43:25;19.51;76.18
69208;SHT31;70114;47.690;8.898;2023-07-16T01:45:51;19.54;76.32
69208;SHT31;70114;47.690;8.898;2023-07-16T01:48:29;19.34;76.46
69208;SHT31;70114;47.690;8.898;2023-07-16T01:50:55;19.48;76.54
69208;SHT31;70114;47.690;8.898;2023-07-16T01:53:20;19.51;76.15
69208;SHT31;70114;47.690;8.898;2023-07-16T01:55:46;19.35;74.75
69208;SHT31;70114;47.690;8.898;2023-07-16T01:58:11;19.28;75.81
69208;SHT31;70114;47.690;8.898;2023-07-16T02:00:37;19.34;75.53
69208;SHT31;70114;47.690;8.898;2023-07-16T02:03:02;19.24;75.41
69208;SHT31;70114;47.690;8.898;2023-07-16T02:05:28;19.06;75.32
69208;SHT31;70114;47.690;8.898;2023-07-16T02:07:53;19.13;75.25
69208;SHT31;70114;47.690;8.898;2023-07-16T02:10:19;19.10;75.85
69208;SHT31;70114;47.690;8.898;2023-07-16T02:12:44;19.11;75.90
69208;SHT31;70114;47.690;8.898;2023-07-16T02:15:09;19.00;75.85
69208;SHT31;70114;47.690;8.898;2023-07-16T02:17:35;19.08;75.45
69208;SHT31;70114;47.690;8.898;2023-07-16T02:20:01;19.04;75.23
69208;SHT31;70114;47.690;8.898;2023-07-16T02:22:26;18.86;75.40
69208;SHT31;70114;47.690;8.898;2023-07-16T02:24:51;18.92;74.94
69208;SHT31;70114;47.690;8.898;2023-07-16T02:27:17;18.82;75.08
69208;SHT31;70114;47.690;8.898;2023-07-16T02:29:42;18.59;76.35
69208;SHT31;70114;47.690;8.898;2023-07-16T02:32:07;18.51;75.74
69208;SHT31;70114;47.690;8.898;2023-07-16T02:34:33;18.52;76.15
69208;SHT31;70114;47.690;8.898;2023-07-16T02:36:58;18.55;75.67
69208;SHT31;70114;47.690;8.898;2023-07-16T02:39:24;18.70;75.34
69208;SHT31;70114;47.690;8.898;2023-07-16T02:41:49;18.48;75.54
69208;SHT31;70114;47.690;8.898;2023-07-16T02:44:14;18.34;75.69
69208;SHT31;70114;47.690;8.898;2023-07-16T02:46:40;18.28;76.68
69208;SHT31;70114;47.690;8.898;2023-07-16T02:49:06;18.38;76.50
69208;SHT31;70114;47.690;8.898;2023-07-16T02:51:32;18.18;76.89
69208;SHT31;70114;47.690;8.898;2023-07-16T02:53:57;18.36;76.72
69208;SHT31;70114;47.690;8.898;2023-07-16T02:56:23;18.18;77.10
69208;SHT31;70114;47.690;8.898;2023-07-16T02:58:48;18.19;77.22
69208;SHT31;70114;47.690;8.898;2023-07-16T03:01:13;18.14;77.65
69208;SHT31;70114;47.690;8.898;2023-07-16T03:03:39;18.08;77.35
69208;SHT31;70114;47.690;8.898;2023-07-16T03:06:04;18.04;77.25
69208;SHT31;70114;47.690;8.898;2023-07-16T03:08:30;18.04;77.22
69208;SHT31;70114;47.690;8.898;2023-07-16T03:10:57;18.04;77.60
69208;SHT31;70114;47.690;8.898;2023-07-16T03:13:23;18.07;77.56
69208;SHT31;70114;47.690;8.898;2023-07-16T03:15:48;17.88;77.19
69208;SHT31;70114;47.690;8.898;2023-07-16T03:18:14;17.69;78.55
69208;SHT31;70114;47.690;8.898;2023-07-16T03:20:39;17.77;78.68
69208;SHT31;70114;47.690;8.898;2023-07-16T03:23:05;17.67;78.80
69208;SHT31;70114;47.690;8.898;2023-07-16T03:25:30;17.79;78.75
69208;SHT31;70114;47.690;8.898;2023-07-16T03:27:55;17.87;78.69
69208;SHT31;70114;47.690;8.898;2023-07-16T03:30:21;18.04;78.36
69208;SHT31;70114;47.690;8.898;2023-07-16T03:32:46;18.01;78.14
69208;SHT31;70114;47.690;8.898;2023-07-16T03:35:12;17.98;77.70
69208;SHT31;70114;47.690;8.898;2023-07-16T03:37:37;18.11;77.45
69208;SHT31;70114;47.690;8.898;2023-07-16T03:40:17;18.14;77.61
69208;SHT31;70114;47.690;8.898;2023-07-16T03:42:43;18.22;77.38
69208;SHT31;70114;47.690;8.898;2023-07-16T03:45:10;18.05;77.28
69208;SHT31;70114;47.690;8.898;2023-07-16T03:47:35;18.07;77.81
69208;SHT31;70114;47.690;8.898;2023-07-16T03:50:01;18.18;77.01
69208;SHT31;70114;47.690;8.898;2023-07-16T03:52:27;18.18;76.94
69208;SHT31;70114;47.690;8.898;2023-07-16T03:54:54;18.12;76.79
69208;SHT31;70114;47.690;8.898;2023-07-16T03:57:19;18.12;77.06
69208;SHT31;70114;47.690;8.898;2023-07-16T03:59:45;18.11;76.94
69208;SHT31;70114;47.690;8.898;2023-07-16T04:02:10;17.97;76.62
69208;SHT31;70114;47.690;8.898;2023-07-16T04:04:36;17.98;77.79
69208;SHT31;70114;47.690;8.898;2023-07-16T04:07:01;17.97;76.97
69208;SHT31;70114;47.690;8.898;2023-07-16T04:09:27;18.04;76.74
69208;SHT31;70114;47.690;8.898;2023-07-16T04:11:52;18.05;76.85
69208;SHT31;70114;47.690;8.898;2023-07-16T04:14:17;18.11;76.83
69208;SHT31;70114;47.690;8.898;2023-07-16T04:16:43;18.12;76.60
69208;SHT31;70114;47.690;8.898;2023-07-16T04:19:09;17.86;77.57
69208;SHT31;70114;47.690;8.898;2023-07-16T04:21:35;17.98;77.45
69208;SHT31;70114;47.690;8.898;2023-07-16T04:24:02;18.09;76.94
69208;SHT31;70114;47.690;8.898;2023-07-16T04:26:27;18.00;77.34
69208;SHT31;70114;47.690;8.898;2023-07-16T04:28:53;17.97;77.17
69208;SHT31;70114;47.690;8.898;2023-07-16T04:31:18;18.09;77.22
69208;SHT31;70114;47.690;8.898;2023-07-16T04:33:43;18.01;77.54
69208;SHT31;70114;47.690;8.898;2023-07-16T04:36:09;17.97;77.91
69208;SHT31;70114;47.690;8.898;2023-07-16T04:38:34;18.05;77.73
69208;SHT31;70114;47.690;8.898;2023-07-16T04:41:00;17.91;78.41
69208;SHT31;70114;47.690;8.898;2023-07-16T04:43:25;18.00;78.67
69208;SHT31;70114;47.690;8.898;2023-07-16T04:45:50;18.17;78.39
69208;SHT31;70114;47.690;8.898;2023-07-16T04:48:16;17.96;78.55
69208;SHT31;70114;47.690;8.898;2023-07-16T04:50:41;17.88;78.88
69208;SHT31;70114;47.690;8.898;2023-07-16T04:53:07;18.04;78.68
69208;SHT31;70114;47.690;8.898;2023-07-16T04:55:38;18.04;78.48
69208;SHT31;70114;47.690;8.898;2023-07-16T04:58:07;17.94;78.77
69208;SHT31;70114;47.690;8.898;2023-07-16T05:00:32;18.19;78.24
69208;SHT31;70114;47.690;8.898;2023-07-16T05:02:58;18.01;78.38
69208;SHT31;70114;47.690;8.898;2023-07-16T05:05:24;17.97;78.25
69208;SHT31;70114;47.690;8.898;2023-07-16T05:07:49;18.00;78.54
69208;SHT31;70114;47.690;8.898;2023-07-16T05:10:14;17.84;78.04
69208;SHT31;70114;47.690;8.898;2023-07-16T05:12:40;17.97;78.14
69208;SHT31;70114;47.690;8.898;2023-07-16T05:15:06;17.98;77.95
69208;SHT31;70114;47.690;8.898;2023-07-16T05:17:31;17.96;78.30
69208;SHT31;70114;47.690;8.898;2023-07-16T05:19:56;18.08;78.41
69208;SHT31;70114;47.690;8.898;2023-07-16T05:22:22;18.05;78.12
69208;SHT31;70114;47.690;8.898;2023-07-16T05:24:47;18.24;78.11
69208;SHT31;70114;47.690;8.898;2023-07-16T05:27:12;18.24;77.60
69208;SHT31;70114;47.690;8.898;2023-07-16T05:29:38;18.38;76.98
69208;SHT31;70114;47.690;8.898;2023-07-16T05:32:04;18.48;76.77
69208;SHT31;70114;47.690;8.898;2023-07-16T05:34:29;18.46;77.32
69208;SHT31;70114;47.690;8.898;2023-07-16T05:36:55;18.66;77.08
69208;SHT31;70114;47.690;8.898;2023-07-16T05:39:21;18.70;77.59
69208;SHT31;70114;47.690;8.898;2023-07-16T05:41:47;18.89;75.64
69208;SHT31;70114;47.690;8.898;2023-07-16T05:44:12;18.87;75.62
69208;SHT31;70114;47.690;8.898;2023-07-16T05:46:38;18.75;75.75
69208;SHT31;70114;47.690;8.898;2023-07-16T05:49:03;18.75;75.29
69208;SHT31;70114;47.690;8.898;2023-07-16T05:51:28;18.79;75.87
69208;SHT31;70114;47.690;8.898;2023-07-16T05:53:54;18.70;76.51
69208;SHT31;70114;47.690;8.898;2023-07-16T05:56:19;18.63;76.91
69208;SHT31;70114;47.690;8.898;2023-07-16T05:58:44;18.75;76.81
69208;SHT31;70114;47.690;8.898;2023-07-16T06:01:10;18.66;77.32
69208;SHT31;70114;47.690;8.898;2023-07-16T06:03:35;18.73;77.06
69208;SHT31;70114;47.690;8.898;2023-07-16T06:06:00;18.76;76.41
69208;SHT31;70114;47.690;8.898;2023-07-16T06:08:26;18.80;75.26
69208;SHT31;70114;47.690;8.898;2023-07-16T06:10:51;18.79;74.54
69208;SHT31;70114;47.690;8.898;2023-07-16T06:13:17;18.90;74.75
69208;SHT31;70114;47.690;8.898;2023-07-16T06:15:43;19.14;73.75
69208;SHT31;70114;47.690;8.898;2023-07-16T06:18:08;19.27;73.37
69208;SHT31;70114;47.690;8.898;2023-07-16T06:20:34;19.24;71.15
69208;SHT31;70114;47.690;8.898;2023-07-16T06:22:59;19.36;70.65
69208;SHT31;70114;47.690;8.898;2023-07-16T06:25:24;19.32;71.26
69208;SHT31;70114;47.690;8.898;2023-07-16T06:27:50;19.42;71.14
69208;SHT31;70114;47.690;8.898;2023-07-16T06:30:15;19.08;69.49
69208;SHT31;70114;47.690;8.898;2023-07-16T06:32:40;19.20;69.49
69208;SHT31;70114;47.690;8.898;2023-07-16T06:35:07;19.28;69.21
69208;SHT31;70114;47.690;8.898;2023-07-16T06:37:33;18.99;70.36
69208;SHT31;70114;47.690;8.898;2023-07-16T06:39:58;19.20;69.33
69208;SHT31;70114;47.690;8.898;2023-07-16T06:42:23;18.96;70.74
69208;SHT31;70114;47.690;8.898;2023-07-16T06:44:49;19.24;69.43
69208;SHT31;70114;47.690;8.898;2023-07-16T06:47:14;19.54;68.66
69208;SHT31;70114;47.690;8.898;2023-07-16T06:49:40;19.59;68.65
69208;SHT31;70114;47.690;8.898;2023-07-16T06:52:06;19.44;68.08
69208;SHT31;70114;47.690;8.898;2023-07-16T06:54:31;19.68;67.00
69208;SHT31;70114;47.690;8.898;2023-07-16T06:56:57;19.76;65.69
69208;SHT31;70114;47.690;8.898;2023-07-16T06:59:22;19.70;65.77
69208;SHT31;70114;47.690;8.898;2023-07-16T07:01:47;19.80;66.36
69208;SHT31;70114;47.690;8.898;2023-07-16T07:04:13;19.65;68.09
69208;SHT31;70114;47.690;8.898;2023-07-16T07:06:38;19.66;65.93
69208;SHT31;70114;47.690;8.898;2023-07-16T07:09:03;19.85;68.05
69208;SHT31;70114;47.690;8.898;2023-07-16T07:11:31;19.72;66.26
69208;SHT31;70114;47.690;8.898;2023-07-16T07:13:56;19.82;67.38
69208;SHT31;70114;47.690;8.898;2023-07-16T07:16:23;19.61;66.19
69208;SHT31;70114;47.690;8.898;2023-07-16T07:18:48;19.57;66.79
69208;SHT31;70114;47.690;8.898;2023-07-16T07:21:14;19.36;66.85
69208;SHT31;70114;47.690;8.898;2023-07-16T07:23:39;19.51;67.05
69208;SHT31;70114;47.690;8.898;2023-07-16T07:26:05;19.61;67.38
69208;SHT31;70114;47.690;8.898;2023-07-16T07:28:30;19.68;65.98
69208;SHT31;70114;47.690;8.898;2023-07-16T07:30:56;19.65;67.50
69208;SHT31;70114;47.690;8.898;2023-07-16T07:33:21;19.65;66.35
69208;SHT31;70114;47.690;8.898;2023-07-16T07:35:46;19.79;65.90
69208;SHT31;70114;47.690;8.898;2023-07-16T07:38:12;19.79;66.25
69208;SHT31;70114;47.690;8.898;2023-07-16T07:40:37;20.05;65.60
69208;SHT31;70114;47.690;8.898;2023-07-16T07:43:02;20.10;65.23
69208;SHT31;70114;47.690;8.898;2023-07-16T07:45:28;20.00;64.97
69208;SHT31;70114;47.690;8.898;2023-07-16T07:47:53;20.12;65.37
69208;SHT31;70114;47.690;8.898;2023-07-16T07:50:19;20.16;65.98
69208;SHT31;70114;47.690;8.898;2023-07-16T07:52:44;20.05;66.66
69208;SHT31;70114;47.690;8.898;2023-07-16T07:55:10;20.00;64.99
69208;SHT31;70114;47.690;8.898;2023-07-16T07:57:35;20.16;67.73
69208;SHT31;70114;47.690;8.898;2023-07-16T08:00:00;20.27;65.83
69208;SHT31;70114;47.690;8.898;2023-07-16T08:02:26;20.33;64.60
69208;SHT31;70114;47.690;8.898;2023-07-16T08:04:55;20.14;64.52
69208;SHT31;70114;47.690;8.898;2023-07-16T08:07:21;20.43;64.96
69208;SHT31;70114;47.690;8.898;2023-07-16T08:09:47;20.59;65.72
69208;SHT31;70114;47.690;8.898;2023-07-16T08:12:13;20.74;65.38
69208;SHT31;70114;47.690;8.898;2023-07-16T08:14:39;20.61;67.26
69208;SHT31;70114;47.690;8.898;2023-07-16T08:17:04;20.85;66.75
69208;SHT31;70114;47.690;8.898;2023-07-16T08:19:30;20.88;66.14
69208;SHT31;70114;47.690;8.898;2023-07-16T08:21:55;20.99;63.35
69208;SHT31;70114;47.690;8.898;2023-07-16T08:24:21;21.09;64.68
69208;SHT31;70114;47.690;8.898;2023-07-16T08:26:46;21.27;62.82
69208;SHT31;70114;47.690;8.898;2023-07-16T08:29:11;21.50;63.77
69208;SHT31;70114;47.690;8.898;2023-07-16T08:31:37;21.41;61.97
69208;SHT31;70114;47.690;8.898;2023-07-16T08:34:02;21.37;61.70
69208;SHT31;70114;47.690;8.898;2023-07-16T08:36:28;21.36;62.24
69208;SHT31;70114;47.690;8.898;2023-07-16T08:38:53;21.31;63.38
69208;SHT31;70114;47.690;8.898;2023-07-16T08:41:18;21.24;62.30
69208;SHT31;70114;47.690;8.898;2023-07-16T08:43:47;21.12;62.04
69208;SHT31;70114;47.690;8.898;2023-07-16T08:46:14;20.86;63.00
69208;SHT31;70114;47.690;8.898;2023-07-16T08:48:40;21.22;63.64
69208;SHT31;70114;47.690;8.898;2023-07-16T08:51:05;21.41;62.39
69208;SHT31;70114;47.690;8.898;2023-07-16T08:53:32;21.58;62.65
69208;SHT31;70114;47.690;8.898;2023-07-16T08:55:58;21.39;61.94
69208;SHT31;70114;47.690;8.898;2023-07-16T08:58:24;21.24;62.17
69208;SHT31;70114;47.690;8.898;2023-07-16T09:00:49;21.18;62.96
69208;SHT31;70114;47.690;8.898;2023-07-16T09:03:16;21.43;62.11
69208;SHT31;70114;47.690;8.898;2023-07-16T09:05:42;21.60;61.07
69208;SHT31;70114;47.690;8.898;2023-07-16T09:08:09;21.53;62.31
69208;SHT31;70114;47.690;8.898;2023-07-16T09:10:34;21.77;62.35
69208;SHT31;70114;47.690;8.898;2023-07-16T09:13:00;21.74;61.94
69208;SHT31;70114;47.690;8.898;2023-07-16T09:15:27;21.58;62.45
69208;SHT31;70114;47.690;8.898;2023-07-16T09:17:53;21.67;62.14
69208;SHT31;70114;47.690;8.898;2023-07-16T09:20:19;21.54;62.34
69208;SHT31;70114;47.690;8.898;2023-07-16T09:22:47;21.78;62.39
69208;SHT31;70114;47.690;8.898;2023-07-16T09:25:12;21.82;61.19
69208;SHT31;70114;47.690;8.898;2023-07-16T09:27:38;21.98;60.81
69208;SHT31;70114;47.690;8.898;2023-07-16T09:30:04;21.99;60.22
69208;SHT31;70114;47.690;8.898;2023-07-16T09:32:38;22.13;60.03
69208;SHT31;70114;47.690;8.898;2023-07-16T09:35:14;22.25;60.34
69208;SHT31;70114;47.690;8.898;2023-07-16T09:37:41;22.64;58.38
69208;SHT31;70114;47.690;8.898;2023-07-16T09:40:08;22.63;61.13
69208;SHT31;70114;47.690;8.898;2023-07-16T09:42:39;22.50;60.64
69208;SHT31;70114;47.690;8.898;2023-07-16T09:45:06;22.22;59.83
69208;SHT31;70114;47.690;8.898;2023-07-16T09:47:35;22.25;60.68
69208;SHT31;70114;47.690;8.898;2023-07-16T09:50:02;22.18;61.12
69208;SHT31;70114;47.690;8.898;2023-07-16T09:52:28;22.59;60.01
69208;SHT31;70114;47.690;8.898;2023-07-16T09:54:56;22.64;60.14
69208;SHT31;70114;47.690;8.898;2023-07-16T09:57:25;22.66;60.47
69208;SHT31;70114;47.690;8.898;2023-07-16T09:59:52;22.53;60.25
69208;SHT31;70114;47.690;8.898;2023-07-16T10:02:20;22.88;59.89
69208;SHT31;70114;47.690;8.898;2023-07-16T10:04:46;22.68;59.86
69208;SHT31;70114;47.690;8.898;2023-07-16T10:07:22;22.78;59.08
69208;SHT31;70114;47.690;8.898;2023-07-16T10:09:56;22.71;59.12
69208;SHT31;70114;47.690;8.898;2023-07-16T10:12:26;22.63;60.49
69208;SHT31;70114;47.690;8.898;2023-07-16T10:14:55;22.42;61.65
69208;SHT31;70114;47.690;8.898;2023-07-16T10:17:26;22.45;60.57
69208;SHT31;70114;47.690;8.898;2023-07-16T10:22:46;22.33;60.07
69208;SHT31;70114;47.690;8.898;2023-07-16T10:27:45;22.53;59.92
69208;SHT31;70114;47.690;8.898;2023-07-16T10:30:10;22.36;59.81
69208;SHT31;70114;47.690;8.898;2023-07-16T10:32:36;22.60;59.37
69208;SHT31;70114;47.690;8.898;2023-07-16T10:35:03;22.30;59.81
69208;SHT31;70114;47.690;8.898;2023-07-16T10:37:29;22.57;58.27
69208;SHT31;70114;47.690;8.898;2023-07-16T10:39:57;22.42;59.61
69208;SHT31;70114;47.690;8.898;2023-07-16T10:42:23;21.94;60.44
69208;SHT31;70114;47.690;8.898;2023-07-16T10:44:50;22.47;59.47
69208;SHT31;70114;47.690;8.898;2023-07-16T10:47:53;22.46;59.50
69208;SHT31;70114;47.690;8.898;2023-07-16T10:50:20;22.50;59.66
69208;SHT31;70114;47.690;8.898;2023-07-16T10:52:55;22.86;58.68
69208;SHT31;70114;47.690;8.898;2023-07-16T10:55:21;22.97;59.60
69208;SHT31;70114;47.690;8.898;2023-07-16T10:57:48;23.19;58.20
69208;SHT31;70114;47.690;8.898;2023-07-16T11:00:15;23.15;57.78
69208;SHT31;70114;47.690;8.898;2023-07-16T11:02:40;23.19;58.70
69208;SHT31;70114;47.690;8.898;2023-07-16T11:05:10;22.98;58.71
69208;SHT31;70114;47.690;8.898;2023-07-16T11:07:35;23.12;58.89
69208;SHT31;70114;47.690;8.898;2023-07-16T11:10:00;23.22;59.25
69208;SHT31;70114;47.690;8.898;2023-07-16T11:12:28;23.19;58.76
69208;SHT31;70114;47.690;8.898;2023-07-16T11:14:54;23.48;58.26
69208;SHT31;70114;47.690;8.898;2023-07-16T11:17:21;23.28;60.56
69208;SHT31;70114;47.690;8.898;2023-07-16T11:19:52;23.53;57.76
69208;SHT31;70114;47.690;8.898;2023-07-16T11:22:17;23.56;58.32
69208;SHT31;70114;47.690;8.898;2023-07-16T11:24:47;23.53;58.94
69208;SHT31;70114;47.690;8.898;2023-07-16T11:27:16;23.15;59.53
69208;SHT31;70114;47.690;8.898;2023-07-16T11:29:49;23.15;60.00
69208;SHT31;70114;47.690;8.898;2023-07-16T11:32:45;23.26;59.76
69208;SHT31;70114;47.690;8.898;2023-07-16T11:35:16;23.35;57.93
69208;SHT31;70114;47.690;8.898;2023-07-16T11:37:43;23.50;58.23
69208;SHT31;70114;47.690;8.898;2023-07-16T11:40:10;23.49;58.69
69208;SHT31;70114;47.690;8.898;2023-07-16T11:42:39;23.52;59.07
69208;SHT31;70114;47.690;8.898;2023-07-16T11:45:15;23.50;61.00
69208;SHT31;70114;47.690;8.898;2023-07-16T11:47:41;23.53;58.06
69208;SHT31;70114;47.690;8.898;2023-07-16T11:50:06;23.53;57.64
69208;SHT31;70114;47.690;8.898;2023-07-16T11:52:32;23.60;57.35
69208;SHT31;70114;47.690;8.898;2023-07-16T11:54:58;23.63;58.03
69208;SHT31;70114;47.690;8.898;2023-07-16T11:57:28;23.81;56.83
69208;SHT31;70114;47.690;8.898;2023-07-16T11:59:54;23.50;58.14
69208;SHT31;70114;47.690;8.898;2023-07-16T12:02:20;23.67;58.74
69208;SHT31;70114;47.690;8.898;2023-07-16T12:04:46;23.22;58.94
69208;SHT31;70114;47.690;8.898;2023-07-16T12:07:11;23.41;59.33
69208;SHT31;70114;47.690;8.898;2023-07-16T12:09:37;23.18;60.31
69208;SHT31;70114;47.690;8.898;2023-07-16T12:12:03;23.52;58.59
69208;SHT31;70114;47.690;8.898;2023-07-16T12:14:28;23.62;58.27
69208;SHT31;70114;47.690;8.898;2023-07-16T12:16:54;23.73;58.00
69208;SHT31;70114;47.690;8.898;2023-07-16T12:19:19;23.56;57.94
69208;SHT31;70114;47.690;8.898;2023-07-16T12:21:44;23.84;57.18
69208;SHT31;70114;47.690;8.898;2023-07-16T12:24:10;23.83;57.86
69208;SHT31;70114;47.690;8.898;2023-07-16T12:26:36;23.81;56.87
69208;SHT31;70114;47.690;8.898;2023-07-16T12:29:02;24.18;55.11
69208;SHT31;70114;47.690;8.898;2023-07-16T12:31:30;24.24;55.43
69208;SHT31;70114;47.690;8.898;2023-07-16T12:33:56;24.11;55.33
69208;SHT31;70114;47.690;8.898;2023-07-16T12:36:21;24.06;56.11
69208;SHT31;70114;47.690;8.898;2023-07-16T12:38:47;24.15;56.74
69208;SHT31;70114;47.690;8.898;2023-07-16T12:41:12;24.20;56.65
69208;SHT31;70114;47.690;8.898;2023-07-16T12:43:40;24.36;56.78
69208;SHT31;70114;47.690;8.898;2023-07-16T12:46:05;24.51;55.58
69208;SHT31;70114;47.690;8.898;2023-07-16T12:48:31;24.58;55.46
69208;SHT31;70114;47.690;8.898;2023-07-16T12:50:57;24.48;56.10
69208;SHT31;70114;47.690;8.898;2023-07-16T12:53:23;24.65;55.11
69208;SHT31;70114;47.690;8.898;2023-07-16T12:55:49;24.55;54.84
69208;SHT31;70114;47.690;8.898;2023-07-16T12:58:15;24.49;54.66
69208;SHT31;70114;47.690;8.898;2023-07-16T13:00:40;24.55;53.85
69208;SHT31;70114;47.690;8.898;2023-07-16T13:03:06;24.65;54.37
69208;SHT31;70114;47.690;8.898;2023-07-16T13:05:33;24.41;55.06
69208;SHT31;70114;47.690;8.898;2023-07-16T13:07:59;24.47;55.37
69208;SHT31;70114;47.690;8.898;2023-07-16T13:10:24;24.47;54.96
69208;SHT31;70114;47.690;8.898;2023-07-16T13:12:50;24.39;54.86
69208;SHT31;70114;47.690;8.898;2023-07-16T13:15:15;24.29;56.23
69208;SHT31;70114;47.690;8.898;2023-07-16T13:17:40;24.76;55.99
69208;SHT31;70114;47.690;8.898;2023-07-16T13:20:06;25.20;54.78
69208;SHT31;70114;47.690;8.898;2023-07-16T13:22:32;25.30;55.17
69208;SHT31;70114;47.690;8.898;2023-07-16T13:24:57;25.42;53.58
69208;SHT31;70114;47.690;8.898;2023-07-16T13:27:23;25.59;53.09
69208;SHT31;70114;47.690;8.898;2023-07-16T13:29:49;25.72;52.00
69208;SHT31;70114;47.690;8.898;2023-07-16T13:32:15;26.05;51.76
69208;SHT31;70114;47.690;8.898;2023-07-16T13:34:40;25.99;50.93
69208;SHT31;70114;47.690;8.898;2023-07-16T13:37:06;25.88;52.49
69208;SHT31;70114;47.690;8.898;2023-07-16T13:39:31;25.79;54.69
69208;SHT31;70114;47.690;8.898;2023-07-16T13:41:56;25.76;52.63
69208;SHT31;70114;47.690;8.898;2023-07-16T13:44:22;26.02;51.68
69208;SHT31;70114;47.690;8.898;2023-07-16T13:46:47;25.81;52.12
69208;SHT31;70114;47.690;8.898;2023-07-16T13:49:12;26.22;51.73
69208;SHT31;70114;47.690;8.898;2023-07-16T13:51:38;26.30;51.36
69208;SHT31;70114;47.690;8.898;2023-07-16T13:54:04;26.12;52.05
69208;SHT31;70114;47.690;8.898;2023-07-16T13:56:29;26.30;51.79
69208;SHT31;70114;47.690;8.898;2023-07-16T13:58:55;26.71;50.84
69208;SHT31;70114;47.690;8.898;2023-07-16T14:01:21;26.74;50.66
69208;SHT31;70114;47.690;8.898;2023-07-16T14:03:47;27.15;47.68
69208;SHT31;70114;47.690;8.898;2023-07-16T14:06:12;27.33;49.23
69208;SHT31;70114;47.690;8.898;2023-07-16T14:08:38;27.87;49.51
69208;SHT31;70114;47.690;8.898;2023-07-16T14:11:03;27.91;47.96
69208;SHT31;70114;47.690;8.898;2023-07-16T14:13:29;27.97;46.94
69208;SHT31;70114;47.690;8.898;2023-07-16T14:15:54;28.35;46.00
69208;SHT31;70114;47.690;8.898;2023-07-16T14:18:20;28.76;47.06
69208;SHT31;70114;47.690;8.898;2023-07-16T14:20:45;29.03;45.34
69208;SHT31;70114;47.690;8.898;2023-07-16T14:23:11;29.17;43.45
69208;SHT31;70114;47.690;8.898;2023-07-16T14:25:36;29.39;43.27
69208;SHT31;70114;47.690;8.898;2023-07-16T14:28:02;29.10;41.49
69208;SHT31;70114;47.690;8.898;2023-07-16T14:30:27;29.62;41.25
69208;SHT31;70114;47.690;8.898;2023-07-16T14:32:52;29.92;42.77
69208;SHT31;70114;47.690;8.898;2023-07-16T14:35:18;30.07;40.29
69208;SHT31;70114;47.690;8.898;2023-07-16T14:37:43;29.85;39.77
69208;SHT31;70114;47.690;8.898;2023-07-16T14:40:09;30.20;39.78
69208;SHT31;70114;47.690;8.898;2023-07-16T14:42:35;30.04;38.10
69208;SHT31;70114;47.690;8.898;2023-07-16T14:45:00;30.45;38.43
69208;SHT31;70114;47.690;8.898;2023-07-16T14:47:25;30.23;39.14
69208;SHT31;70114;47.690;8.898;2023-07-16T14:49:51;30.44;38.35
69208;SHT31;70114;47.690;8.898;2023-07-16T14:52:16;30.92;38.96
69208;SHT31;70114;47.690;8.898;2023-07-16T14:54:41;30.92;37.16
69208;SHT31;70114;47.690;8.898;2023-07-16T14:57:07;30.95;38.81
69208;SHT31;70114;47.690;8.898;2023-07-16T14:59:32;30.83;38.43
69208;SHT31;70114;47.690;8.898;2023-07-16T15:01:59;30.90;37.60
69208;SHT31;70114;47.690;8.898;2023-07-16T15:04:24;31.10;37.86
69208;SHT31;70114;47.690;8.898;2023-07-16T15:06:50;31.53;37.56
69208;SHT31;70114;47.690;8.898;2023-07-16T15:09:16;31.74;37.09
69208;SHT31;70114;47.690;8.898;2023-07-16T15:11:41;31.74;37.35
69208;SHT31;70114;47.690;8.898;2023-07-16T15:14:06;31.92;35.46
69208;SHT31;70114;47.690;8.898;2023-07-16T15:16:32;32.01;36.08
69208;SHT31;70114;47.690;8.898;2023-07-16T15:18:57;31.29;37.09
69208;SHT31;70114;47.690;8.898;2023-07-16T15:21:24;31.36;37.35
69208;SHT31;70114;47.690;8.898;2023-07-16T15:23:50;31.44;36.70
69208;SHT31;70114;47.690;8.898;2023-07-16T15:26:15;31.96;37.21
69208;SHT31;70114;47.690;8.898;2023-07-16T15:28:40;31.96;36.20
69208;SHT31;70114;47.690;8.898;2023-07-16T15:31:08;31.51;37.09
69208;SHT31;70114;47.690;8.898;2023-07-16T15:33:34;31.22;37.36
69208;SHT31;70114;47.690;8.898;2023-07-16T15:35:59;31.63;37.56